Kutahya, Turkey
Current Conditions -  °F | °C
As of 3:50 AM on Sunday 26 Oct 2014 (Local Time) from LTBY Reporting Station
Moderate Fog Moderate Fog  
Wind Chill: 46°   Ceiling: 200
Heat Index: 46°   Visibility: 0.37mi
Dew Point: 45°   Wind: 3mph
Humidity: 93%   Direction: 220°SW
Pressure: 30"   Gusts: NA
Location:  39.42°N, 29.98°E
Report Text: LTBY 260150Z 22003KT 190V250 0600 R09/0650U R27/0500U FG VV002 08/07 Q1016
Loading
Personal Weather Stations






























Interactive Weather Map
Tropical Storm Tracking
New forecast layout! Learn more

10-Day Weather Forecast

Advertisements
Track Severe Weather on mobile